createdAt,value
2018-01-10T00:00:38.614Z,33.30
2018-01-10T00:01:43.642Z,31.65
2018-01-10T00:02:48.886Z,31.25
2018-01-10T00:03:53.392Z,33.80
2018-01-10T00:04:58.643Z,32.42
2018-01-10T00:06:03.138Z,33.72
2018-01-10T00:07:07.844Z,33.78
2018-01-10T00:08:13.090Z,32.45
2018-01-10T00:09:17.600Z,33.90
2018-01-10T00:10:22.896Z,34.92
2018-01-10T00:11:27.385Z,34.15
2018-01-10T00:12:31.875Z,33.88
2018-01-10T00:13:36.102Z,32.80
2018-01-10T00:14:40.636Z,31.62
2018-01-10T00:15:45.118Z,31.95
2018-01-10T00:16:49.574Z,34.83
2018-01-10T00:17:54.831Z,32.63
2018-01-10T00:18:59.307Z,32.47
2018-01-10T00:20:03.804Z,33.13
2018-01-10T00:21:08.284Z,31.92
2018-01-10T00:22:12.766Z,32.03
2018-01-10T00:23:17.264Z,32.78
2018-01-10T00:24:22.568Z,31.80
2018-01-10T00:25:27.294Z,31.50
2018-01-10T00:26:31.900Z,32.30
2018-01-10T00:27:37.340Z,31.55
2018-01-10T00:28:41.865Z,31.25
2018-01-10T00:29:47.109Z,31.73
2018-01-10T00:30:52.385Z,33.47
2018-01-10T00:31:56.866Z,31.80
2018-01-10T00:33:01.356Z,31.00
2018-01-10T00:34:06.744Z,31.60
2018-01-10T00:35:11.210Z,30.40
2018-01-10T00:36:15.374Z,31.20
2018-01-10T00:37:19.844Z,33.05
2018-01-10T00:38:24.332Z,32.10
2018-01-10T00:39:29.583Z,31.80
2018-01-10T00:40:34.056Z,32.05
2018-01-10T00:41:38.604Z,32.33
2018-01-10T00:42:44.020Z,32.08
2018-01-10T00:43:49.304Z,32.60
2018-01-10T00:44:53.773Z,30.83
2018-01-10T00:45:58.267Z,31.85
2018-01-10T00:47:03.529Z,30.67
2018-01-10T00:48:08.017Z,30.65
2018-01-10T00:49:13.343Z,31.92
2018-01-10T00:50:18.592Z,31.10
2018-01-10T00:51:23.053Z,29.73
2018-01-10T00:52:27.568Z,30.70
2018-01-10T00:53:32.049Z,31.27
2018-01-10T00:54:36.522Z,31.33
2018-01-10T00:55:41.762Z,33.20
2018-01-10T00:56:46.252Z,31.95
2018-01-10T00:57:51.511Z,30.40
2018-01-10T00:58:56.000Z,30.85
2018-01-10T01:00:01.252Z,31.12
2018-01-10T01:01:05.732Z,30.95
2018-01-10T01:02:10.214Z,29.55
2018-01-10T01:03:14.712Z,31.12
2018-01-10T01:04:19.169Z,29.80
2018-01-10T01:05:24.398Z,29.20
2018-01-10T01:06:29.652Z,29.45
2018-01-10T01:07:34.118Z,29.65
2018-01-10T01:08:38.616Z,28.87
2018-01-10T01:09:43.111Z,31.90
2018-01-10T01:10:47.596Z,31.02
2018-01-10T01:11:52.152Z,30.75
2018-01-10T01:12:56.631Z,29.15
2018-01-10T01:14:01.111Z,30.05
2018-01-10T01:15:06.334Z,28.67
2018-01-10T01:16:11.593Z,31.58
2018-01-10T01:17:16.072Z,30.98
2018-01-10T01:18:21.376Z,29.00
2018-01-10T01:19:25.862Z,30.58
2018-01-10T01:20:30.338Z,31.20
2018-01-10T01:21:35.244Z,29.90
2018-01-10T01:22:39.710Z,30.77
2018-01-10T01:23:44.204Z,30.62
2018-01-10T01:24:48.698Z,31.73
2018-01-10T01:25:53.923Z,31.42
2018-01-10T01:26:59.179Z,30.25
2018-01-10T01:28:03.642Z,32.28
2018-01-10T01:29:08.119Z,31.45
2018-01-10T01:30:12.637Z,30.48
2018-01-10T01:31:17.098Z,30.55
2018-01-10T01:32:22.327Z,31.27
2018-01-10T01:33:27.558Z,31.25
2018-01-10T01:34:32.790Z,31.08
2018-01-10T01:35:38.061Z,32.55
2018-01-10T01:36:42.538Z,29.65
2018-01-10T01:37:47.789Z,31.37
2018-01-10T01:38:52.269Z,32.05
2018-01-10T01:39:56.792Z,31.90
2018-01-10T01:41:01.301Z,31.37
2018-01-10T01:42:06.530Z,30.55
2018-01-10T01:43:11.785Z,32.72
2018-01-10T01:44:16.263Z,30.40
2018-01-10T01:45:21.509Z,31.12
2018-01-10T01:46:25.997Z,32.85
2018-01-10T01:47:30.864Z,30.77
2018-01-10T01:48:35.340Z,31.00
2018-01-10T01:49:40.563Z,31.55
2018-01-10T01:50:45.832Z,32.60
2018-01-10T01:51:50.313Z,31.42
2018-01-10T01:52:55.550Z,31.00
2018-01-10T01:54:00.027Z,31.17
2018-01-10T01:55:04.551Z,30.70
2018-01-10T01:56:09.052Z,32.42
2018-01-10T01:57:14.302Z,31.25
2018-01-10T01:58:19.547Z,30.70
2018-01-10T01:59:24.010Z,32.30
2018-01-10T02:00:28.527Z,31.40
2018-01-10T02:01:33.041Z,31.45
2018-01-10T02:02:38.555Z,34.25
2018-01-10T02:03:43.037Z,30.05
2018-01-10T02:04:47.498Z,31.73
2018-01-10T02:05:51.984Z,32.38
2018-01-10T02:06:56.492Z,29.80
2018-01-10T02:08:00.964Z,31.30
2018-01-10T02:09:06.238Z,30.30
2018-01-10T02:10:10.721Z,31.02
2018-01-10T02:11:15.202Z,31.67
2018-01-10T02:12:19.704Z,30.83
2018-01-10T02:13:24.218Z,31.62
2018-01-10T02:14:28.706Z,30.85
2018-01-10T02:15:33.174Z,29.10
2018-01-10T02:16:37.656Z,29.30
2018-01-10T02:17:42.154Z,31.05
2018-01-10T02:18:46.643Z,29.23
2018-01-10T02:19:51.110Z,31.58
2018-01-10T02:20:56.343Z,31.95
2018-01-10T02:22:01.566Z,30.20
2018-01-10T02:23:06.838Z,31.20
2018-01-10T02:24:11.325Z,31.12
2018-01-10T02:25:15.783Z,29.95
2018-01-10T02:26:20.268Z,28.55
2018-01-10T02:27:24.748Z,30.50
2018-01-10T02:28:30.032Z,29.73
2018-01-10T02:29:34.524Z,29.98
2018-01-10T02:30:38.987Z,28.67
2018-01-10T02:31:44.237Z,30.30
2018-01-10T02:32:49.465Z,30.42
2018-01-10T02:33:53.976Z,30.17
2018-01-10T02:34:58.876Z,29.75
2018-01-10T02:36:04.109Z,29.40
2018-01-10T02:37:09.364Z,30.70
2018-01-10T02:38:13.821Z,29.92
2018-01-10T02:39:18.336Z,28.23
2018-01-10T02:40:22.826Z,31.17
2018-01-10T02:41:27.312Z,30.45
2018-01-10T02:42:38.031Z,30.23
2018-01-10T02:43:42.516Z,30.23
2018-01-10T02:44:47.029Z,29.30
2018-01-10T02:45:51.516Z,30.40
2018-01-10T02:46:55.981Z,31.12
2018-01-10T02:48:00.443Z,32.00
2018-01-10T02:49:04.928Z,30.00
2018-01-10T02:50:09.869Z,30.23
2018-01-10T02:51:14.338Z,31.05
2018-01-10T02:52:18.829Z,29.67
2018-01-10T02:53:23.290Z,30.20
2018-01-10T02:54:27.758Z,31.62
2018-01-10T02:55:32.273Z,30.95
2018-01-10T02:56:36.751Z,30.05
2018-01-10T02:57:41.214Z,31.92
2018-01-10T02:58:46.451Z,31.87
2018-01-10T02:59:50.944Z,31.08
2018-01-10T03:00:55.442Z,31.25
2018-01-10T03:01:59.914Z,31.52
2018-01-10T03:03:04.374Z,30.92
2018-01-10T03:04:08.838Z,29.48
2018-01-10T03:05:13.331Z,30.85
2018-01-10T03:06:18.604Z,31.50
2018-01-10T03:07:23.079Z,32.75
2018-01-10T03:08:27.541Z,29.10
2018-01-10T03:09:32.046Z,30.67
2018-01-10T03:10:36.531Z,29.80
2018-01-10T03:11:41.026Z,31.05
2018-01-10T03:12:45.501Z,30.83
2018-01-10T03:13:49.966Z,31.60
2018-01-10T03:14:54.507Z,33.15
2018-01-10T03:15:58.997Z,31.83
2018-01-10T03:17:03.504Z,31.27
2018-01-10T03:18:07.638Z,32.35
2018-01-10T03:19:12.124Z,32.17
2018-01-10T03:20:16.596Z,35.40
2018-01-10T03:21:21.847Z,33.58
2018-01-10T03:22:26.327Z,33.35
2018-01-10T03:23:31.604Z,32.60
2018-01-10T03:24:35.743Z,34.38
2018-01-10T03:25:40.209Z,31.95
2018-01-10T03:26:44.700Z,34.13
2018-01-10T03:27:50.084Z,32.85
2018-01-10T03:28:54.572Z,33.53
2018-01-10T03:29:59.061Z,33.35
2018-01-10T03:31:04.313Z,33.85
2018-01-10T03:32:08.761Z,34.95
2018-01-10T03:33:14.783Z,34.05
2018-01-10T03:34:19.272Z,34.05
2018-01-10T03:35:23.750Z,33.90
2018-01-10T03:36:28.240Z,35.53
2018-01-10T03:37:32.693Z,35.97
2018-01-10T03:38:37.200Z,34.60
2018-01-10T03:39:41.770Z,34.40
2018-01-10T03:40:46.245Z,33.53
2018-01-10T03:41:50.733Z,33.70
2018-01-10T03:42:55.966Z,34.65
2018-01-10T03:44:01.250Z,35.58
2018-01-10T03:45:05.706Z,35.05
2018-01-10T03:46:10.959Z,35.72
2018-01-10T03:47:15.417Z,32.95
2018-01-10T03:48:19.889Z,36.30
2018-01-10T03:49:24.373Z,32.70
2018-01-10T03:50:29.598Z,34.97
2018-01-10T03:51:34.496Z,34.22
2018-01-10T03:52:38.995Z,34.38
2018-01-10T03:53:43.467Z,32.95
2018-01-10T03:54:47.960Z,33.47
2018-01-10T03:55:52.431Z,29.67
2018-01-10T03:56:56.904Z,32.53
2018-01-10T03:58:01.371Z,32.85
2018-01-10T03:59:05.829Z,33.83
2018-01-10T04:00:10.345Z,32.17
2018-01-10T04:01:14.805Z,31.95
2018-01-10T04:02:20.047Z,30.60
2018-01-10T04:03:25.277Z,33.85
2018-01-10T04:04:30.510Z,32.13
2018-01-10T04:05:35.788Z,33.05
2018-01-10T04:06:40.281Z,33.60
2018-01-10T04:07:44.762Z,33.70
2018-01-10T04:08:50.015Z,33.55
2018-01-10T04:09:54.502Z,32.08
2018-01-10T04:10:59.772Z,32.20
2018-01-10T04:12:04.259Z,32.60
2018-01-10T04:13:08.744Z,32.97
2018-01-10T04:14:13.202Z,31.02
2018-01-10T04:15:17.505Z,33.35
2018-01-10T04:16:22.005Z,33.50
2018-01-10T04:17:26.162Z,32.15
2018-01-10T04:18:30.645Z,32.78
2018-01-10T04:19:35.110Z,31.35
2018-01-10T04:20:40.341Z,32.72
2018-01-10T04:21:45.618Z,32.85
2018-01-10T04:22:50.123Z,33.50
2018-01-10T04:23:54.804Z,33.35
2018-01-10T04:25:00.049Z,33.25
2018-01-10T04:26:04.534Z,32.20
2018-01-10T04:27:09.857Z,33.25
2018-01-10T04:28:15.096Z,34.53
2018-01-10T04:29:20.374Z,32.35
2018-01-10T04:30:25.042Z,32.90
2018-01-10T04:31:30.360Z,32.33
2018-01-10T04:32:34.865Z,32.65
2018-01-10T04:33:40.090Z,32.15
2018-01-10T04:34:44.559Z,32.25
2018-01-10T04:35:49.042Z,32.58
2018-01-10T04:36:54.274Z,32.08
2018-01-10T04:37:59.544Z,34.22
2018-01-10T04:39:03.405Z,32.85
2018-01-10T04:40:08.689Z,30.55
2018-01-10T04:41:13.159Z,27.87
2018-01-10T04:42:17.630Z,29.80
2018-01-10T04:43:22.190Z,30.15
2018-01-10T04:44:26.664Z,28.52
2018-01-10T04:45:31.145Z,30.85
2018-01-10T04:46:35.606Z,26.37
2018-01-10T04:47:40.830Z,29.35
2018-01-10T04:48:46.088Z,27.00
2018-01-10T04:49:50.563Z,28.87
2018-01-10T04:50:55.815Z,30.15
2018-01-10T04:52:01.049Z,25.48
2018-01-10T04:53:06.290Z,26.25
2018-01-10T04:54:11.551Z,26.98
2018-01-10T04:55:16.014Z,26.45
2018-01-10T04:56:20.497Z,28.05
2018-01-10T04:57:24.981Z,31.67
2018-01-10T04:58:29.458Z,26.73
2018-01-10T04:59:34.822Z,26.05
2018-01-10T05:00:39.299Z,27.62
2018-01-10T05:01:44.528Z,28.27
2018-01-10T05:02:49.777Z,26.48
2018-01-10T05:03:54.256Z,28.48
2018-01-10T05:04:58.745Z,25.55
2018-01-10T05:06:03.227Z,26.33
2018-01-10T05:07:07.686Z,25.52
2018-01-10T05:08:12.172Z,26.42
2018-01-10T05:09:16.648Z,26.67
2018-01-10T05:10:21.129Z,26.83
2018-01-10T05:11:25.750Z,27.13
2018-01-10T05:12:30.399Z,28.10
2018-01-10T05:13:34.880Z,27.62
2018-01-10T05:14:40.406Z,26.40
2018-01-10T05:15:45.662Z,26.60
2018-01-10T05:16:50.894Z,29.08
2018-01-10T05:17:55.372Z,26.85
2018-01-10T05:18:59.858Z,26.50
2018-01-10T05:20:04.010Z,27.10
2018-01-10T05:21:09.313Z,26.48
2018-01-10T05:22:13.777Z,27.25
2018-01-10T05:23:18.256Z,27.25
2018-01-10T05:24:23.509Z,25.45
2018-01-10T05:25:28.119Z,25.45
2018-01-10T05:26:32.623Z,24.35
2018-01-10T05:27:37.085Z,26.85
2018-01-10T05:28:41.552Z,26.50
2018-01-10T05:29:46.020Z,27.30
2018-01-10T05:30:50.492Z,36.60
2018-01-10T05:31:54.988Z,31.55
2018-01-10T05:32:59.479Z,29.67
2018-01-10T05:34:04.757Z,29.02
2018-01-10T05:35:09.234Z,27.95
2018-01-10T05:36:13.367Z,27.77
2018-01-10T05:37:17.893Z,24.33
2018-01-10T05:38:22.362Z,22.92
2018-01-10T05:39:26.856Z,25.33
2018-01-10T05:40:32.072Z,25.48
2018-01-10T05:41:36.585Z,24.15
2018-01-10T05:42:41.108Z,24.98
2018-01-10T05:43:46.370Z,24.10
2018-01-10T05:44:50.888Z,26.20
2018-01-10T05:45:55.371Z,24.45
2018-01-10T05:47:00.628Z,23.92
2018-01-10T05:48:05.127Z,23.50
2018-01-10T05:49:09.608Z,23.90
2018-01-10T05:50:14.116Z,25.65
2018-01-10T05:51:18.592Z,26.33
2018-01-10T05:52:23.053Z,24.33
2018-01-10T05:53:28.376Z,24.95
2018-01-10T05:54:33.628Z,24.33
2018-01-10T05:55:38.090Z,24.23
2018-01-10T05:56:42.554Z,24.60
2018-01-10T05:57:47.044Z,24.80
2018-01-10T05:58:52.305Z,24.15
2018-01-10T05:59:56.792Z,23.80
2018-01-10T06:01:02.027Z,24.95
2018-01-10T06:02:06.508Z,25.50
2018-01-10T06:03:10.973Z,23.92
2018-01-10T06:04:15.520Z,21.75
2018-01-10T06:05:20.003Z,23.90
2018-01-10T06:06:24.482Z,21.60
2018-01-10T06:07:29.729Z,23.73
2018-01-10T06:08:34.279Z,22.58
2018-01-10T06:09:38.784Z,23.20
2018-01-10T06:10:43.257Z,22.25
2018-01-10T06:11:47.726Z,23.33
2018-01-10T06:12:53.968Z,21.87
2018-01-10T06:13:58.434Z,22.83
2018-01-10T06:15:02.961Z,24.30
2018-01-10T06:16:07.452Z,22.27
2018-01-10T06:17:12.698Z,23.65
2018-01-10T06:18:17.180Z,24.48
2018-01-10T06:19:22.407Z,27.62
2018-01-10T06:20:27.685Z,26.60
2018-01-10T06:21:32.146Z,28.12
2018-01-10T06:22:36.628Z,26.10
2018-01-10T06:23:41.090Z,26.85
2018-01-10T06:24:45.577Z,25.73
2018-01-10T06:25:50.144Z,25.40
2018-01-10T06:26:54.598Z,26.30
2018-01-10T06:27:59.076Z,27.05
2018-01-10T06:29:03.538Z,26.87
2018-01-10T06:30:08.777Z,27.00
2018-01-10T06:31:14.025Z,28.27
2018-01-10T06:32:18.509Z,29.02
2018-01-10T06:33:23.757Z,29.33
2018-01-10T06:34:28.240Z,30.27
2018-01-10T06:35:32.702Z,30.23
2018-01-10T06:36:37.188Z,29.60
2018-01-10T06:37:41.686Z,30.15
2018-01-10T06:38:46.914Z,28.83
2018-01-10T06:39:52.145Z,28.77
2018-01-10T06:40:57.405Z,26.75
2018-01-10T06:42:01.898Z,27.10
2018-01-10T06:43:06.454Z,25.92
2018-01-10T06:44:10.918Z,26.75
2018-01-10T06:45:15.382Z,27.73
2018-01-10T06:46:19.885Z,27.23
2018-01-10T06:47:24.421Z,26.42
2018-01-10T06:48:28.883Z,27.00
2018-01-10T06:49:33.373Z,26.58
2018-01-10T06:50:38.625Z,26.67
2018-01-10T06:51:43.115Z,26.62
2018-01-10T06:52:48.366Z,24.98
2018-01-10T06:53:52.848Z,26.77
2018-01-10T06:54:58.205Z,25.02
2018-01-10T06:56:02.674Z,24.10
2018-01-10T06:57:07.157Z,25.85
2018-01-10T06:58:11.670Z,27.42
2018-01-10T06:59:16.143Z,26.95
2018-01-10T07:00:20.620Z,30.17
2018-01-10T07:01:25.082Z,32.20
2018-01-10T07:02:29.568Z,26.67
2018-01-10T07:03:34.841Z,28.30
2018-01-10T07:04:39.313Z,26.77
2018-01-10T07:05:43.782Z,32.67
2018-01-10T07:06:48.248Z,28.12
2018-01-10T07:07:52.672Z,34.10
2018-01-10T07:08:57.157Z,29.58
2018-01-10T07:10:01.645Z,25.75
2018-01-10T07:11:06.891Z,24.27
2018-01-10T07:12:12.140Z,25.37
2018-01-10T07:13:16.616Z,26.87
2018-01-10T07:14:21.884Z,25.62
2018-01-10T07:15:26.435Z,27.33
2018-01-10T07:16:30.912Z,30.88
2018-01-10T07:17:35.375Z,29.67
2018-01-10T07:18:39.854Z,28.52
2018-01-10T07:19:44.352Z,28.00
2018-01-10T07:20:48.824Z,28.10
2018-01-10T07:21:54.064Z,34.22
2018-01-10T07:22:59.105Z,31.90
2018-01-10T07:24:03.598Z,31.80
2018-01-10T07:25:08.871Z,24.95
2018-01-10T07:26:13.397Z,28.65
2018-01-10T07:27:17.874Z,28.50
2018-01-10T07:28:22.348Z,25.92
2018-01-10T07:29:27.600Z,23.83
2018-01-10T07:30:32.874Z,26.42
2018-01-10T07:31:37.350Z,26.20
2018-01-10T07:32:41.813Z,25.98
2018-01-10T07:33:47.056Z,24.27
2018-01-10T07:34:52.280Z,27.33
2018-01-10T07:35:56.783Z,23.27
2018-01-10T07:37:01.268Z,24.52
2018-01-10T07:38:05.788Z,24.50
2018-01-10T07:39:10.277Z,27.75
2018-01-10T07:40:14.740Z,26.02
2018-01-10T07:41:19.281Z,27.13
2018-01-10T07:42:24.557Z,29.00
2018-01-10T07:43:29.031Z,29.33
2018-01-10T07:44:33.490Z,27.65
2018-01-10T07:45:37.980Z,29.98
2018-01-10T07:46:42.485Z,28.60
2018-01-10T07:47:46.952Z,29.70
2018-01-10T07:48:51.428Z,27.83
2018-01-10T07:49:55.888Z,25.15
2018-01-10T07:51:00.354Z,24.83
2018-01-10T07:52:04.859Z,26.35
2018-01-10T07:53:09.353Z,27.92
2018-01-10T07:54:13.823Z,28.77
2018-01-10T07:55:19.066Z,28.12
2018-01-10T07:56:24.624Z,28.92
2018-01-10T07:57:29.124Z,26.62
2018-01-10T07:58:33.607Z,28.42
2018-01-10T07:59:38.838Z,28.27
2018-01-10T08:00:43.340Z,26.67
2018-01-10T08:01:47.803Z,26.35
2018-01-10T08:02:52.293Z,27.40
2018-01-10T08:03:56.766Z,22.40
2018-01-10T08:05:01.256Z,25.37
2018-01-10T08:06:05.744Z,24.95
2018-01-10T08:07:10.209Z,25.83
2018-01-10T08:08:15.480Z,27.45
2018-01-10T08:09:19.979Z,24.85
2018-01-10T08:10:24.713Z,27.27
2018-01-10T08:11:28.989Z,24.60
2018-01-10T08:12:33.449Z,26.48
2018-01-10T08:13:37.952Z,23.87
2018-01-10T08:14:42.449Z,27.23
2018-01-10T08:15:46.906Z,29.50
2018-01-10T08:16:51.386Z,26.12
2018-01-10T08:17:55.872Z,28.35
2018-01-10T08:19:00.943Z,25.37
2018-01-10T08:20:05.662Z,23.65
2018-01-10T08:21:10.136Z,25.15
2018-01-10T08:22:14.616Z,25.33
2018-01-10T08:23:19.084Z,27.05
2018-01-10T08:24:23.627Z,25.55
2018-01-10T08:25:28.430Z,24.75
2018-01-10T08:26:35.131Z,24.17
2018-01-10T08:27:40.176Z,25.05
2018-01-10T08:28:44.732Z,24.33
2018-01-10T08:29:49.276Z,23.80
2018-01-10T08:30:54.537Z,24.95
2018-01-10T08:31:59.004Z,23.73
2018-01-10T08:33:03.471Z,24.20
2018-01-10T08:34:07.948Z,25.65
2018-01-10T08:35:13.194Z,24.77
2018-01-10T08:36:17.672Z,25.45
2018-01-10T08:37:22.153Z,25.08
2018-01-10T08:38:26.633Z,26.05
2018-01-10T08:39:30.932Z,26.27
2018-01-10T08:40:35.452Z,24.90
2018-01-10T08:41:39.930Z,25.12
2018-01-10T08:42:45.186Z,25.27
2018-01-10T08:43:49.655Z,23.95
2018-01-10T08:44:54.224Z,23.90
2018-01-10T08:45:58.734Z,24.37
2018-01-10T08:47:03.311Z,23.55
2018-01-10T08:48:07.775Z,22.70
2018-01-10T08:49:12.268Z,23.73
2018-01-10T08:50:16.752Z,24.02
2018-01-10T08:51:22.063Z,22.83
2018-01-10T08:52:26.550Z,24.70
2018-01-10T08:53:30.826Z,25.70
2018-01-10T08:54:35.294Z,21.95
2018-01-10T08:55:39.766Z,23.48
2018-01-10T08:56:44.257Z,23.75
2018-01-10T08:57:48.722Z,22.23
2018-01-10T08:58:53.207Z,24.10
2018-01-10T08:59:57.665Z,24.35
2018-01-10T09:01:02.910Z,22.85
2018-01-10T09:02:08.166Z,22.15
2018-01-10T09:03:12.659Z,23.55
2018-01-10T09:04:17.133Z,23.52
2018-01-10T09:05:23.125Z,23.17
2018-01-10T09:06:27.616Z,22.48
2018-01-10T09:07:32.889Z,21.58
2018-01-10T09:08:37.368Z,21.48
2018-01-10T09:09:42.602Z,22.00
2018-01-10T09:10:47.204Z,21.05
2018-01-10T09:11:52.443Z,20.30
2018-01-10T09:12:57.718Z,20.90
2018-01-10T09:14:02.203Z,20.50
2018-01-10T09:15:06.368Z,20.75
2018-01-10T09:16:10.838Z,20.88
2018-01-10T09:17:15.306Z,21.40
2018-01-10T09:18:20.589Z,20.95
2018-01-10T09:19:25.063Z,20.23
2018-01-10T09:20:29.523Z,21.05
2018-01-10T09:21:34.758Z,19.35
2018-01-10T09:22:39.217Z,20.60
2018-01-10T09:23:43.739Z,21.90
2018-01-10T09:24:48.216Z,22.33
2018-01-10T09:25:53.455Z,20.08
2018-01-10T09:26:57.949Z,22.15
2018-01-10T09:28:03.189Z,21.67
2018-01-10T09:29:08.472Z,20.50
2018-01-10T09:30:12.963Z,21.42
2018-01-10T09:31:17.469Z,19.95
2018-01-10T09:32:21.956Z,22.15
2018-01-10T09:33:27.181Z,21.90
2018-01-10T09:34:32.465Z,18.33
2018-01-10T09:35:36.986Z,17.80
2018-01-10T09:36:41.450Z,18.20
2018-01-10T09:37:45.948Z,19.50
2018-01-10T09:38:51.208Z,18.00
2018-01-10T09:39:55.725Z,17.83
2018-01-10T09:41:00.228Z,16.40
2018-01-10T09:42:04.704Z,16.70
2018-01-10T09:43:09.963Z,16.27
2018-01-10T09:44:14.453Z,17.65
2018-01-10T09:45:19.745Z,17.08
2018-01-10T09:46:24.359Z,16.65
2018-01-10T09:47:28.533Z,14.98
2018-01-10T09:48:33.024Z,15.45
2018-01-10T09:49:37.502Z,15.32
2018-01-10T09:50:42.013Z,14.55
2018-01-10T09:51:46.510Z,14.87
2018-01-10T09:52:51.003Z,13.57
2018-01-10T09:53:55.499Z,12.23
2018-01-10T09:54:59.973Z,13.93
2018-01-10T09:56:04.496Z,13.85
2018-01-10T09:57:09.892Z,14.18
2018-01-10T09:58:14.065Z,14.18
2018-01-10T09:59:18.544Z,17.92
2018-01-10T10:00:23.464Z,27.02
2018-01-10T10:01:28.758Z,26.48
2018-01-10T10:02:33.582Z,26.55
2018-01-10T10:03:37.858Z,26.67
2018-01-10T10:04:42.352Z,17.05
2018-01-10T10:05:46.824Z,14.32
2018-01-10T10:06:52.450Z,14.05
2018-01-10T10:07:56.918Z,14.80
2018-01-10T10:09:01.478Z,13.98
2018-01-10T10:10:05.972Z,14.87
2018-01-10T10:11:10.465Z,12.93
2018-01-10T10:12:14.980Z,13.05
2018-01-10T10:13:19.478Z,12.20
2018-01-10T10:14:23.980Z,13.50
2018-01-10T10:15:29.236Z,13.80
2018-01-10T10:16:33.728Z,13.75
2018-01-10T10:17:38.234Z,15.23
2018-01-10T10:18:42.726Z,14.65
2018-01-10T10:19:47.201Z,14.07
2018-01-10T10:20:51.677Z,12.77
2018-01-10T10:21:56.160Z,13.05
2018-01-10T10:23:01.467Z,12.63
2018-01-10T10:24:05.938Z,13.40
2018-01-10T10:25:10.416Z,12.57
2018-01-10T10:26:15.654Z,12.88
2018-01-10T10:27:20.924Z,12.85
2018-01-10T10:28:25.420Z,12.60
2018-01-10T10:29:29.912Z,12.57
2018-01-10T10:30:35.161Z,13.75
2018-01-10T10:31:39.657Z,13.35
2018-01-10T10:32:44.277Z,12.00
2018-01-10T10:33:48.796Z,11.88
2018-01-10T10:34:53.286Z,11.85
2018-01-10T10:35:58.522Z,11.65
2018-01-10T10:37:03.809Z,12.07
2018-01-10T10:38:08.277Z,12.32
2018-01-10T10:39:12.815Z,11.00
2018-01-10T10:40:17.318Z,12.77
2018-01-10T10:41:21.972Z,11.95
2018-01-10T10:42:26.453Z,10.18
2018-01-10T10:43:30.944Z,11.52
2018-01-10T10:44:35.609Z,11.20
2018-01-10T10:45:40.080Z,9.90
2018-01-10T10:46:44.559Z,9.55
2018-01-10T10:47:49.786Z,9.95
2018-01-10T10:48:54.706Z,10.00
2018-01-10T10:50:00.049Z,10.40
2018-01-10T10:51:05.293Z,9.50
2018-01-10T10:52:09.750Z,9.45
2018-01-10T10:53:14.217Z,10.25
2018-01-10T10:54:18.702Z,10.77
2018-01-10T10:55:23.197Z,9.40
2018-01-10T10:56:27.662Z,10.00
2018-01-10T10:57:32.182Z,10.15
2018-01-10T10:58:36.663Z,8.77
2018-01-10T10:59:41.890Z,9.60
2018-01-10T11:00:47.160Z,9.52
2018-01-10T11:01:51.633Z,8.70
2018-01-10T11:02:56.879Z,9.00
2018-01-10T11:04:01.337Z,8.52
2018-01-10T11:05:05.813Z,7.93
2018-01-10T11:06:10.657Z,8.23
2018-01-10T11:07:15.124Z,8.52
2018-01-10T11:08:20.376Z,7.95
2018-01-10T11:09:24.838Z,8.15
2018-01-10T11:10:30.065Z,9.10
2018-01-10T11:11:34.561Z,8.75
2018-01-10T11:12:39.018Z,7.43
2018-01-10T11:13:43.496Z,7.53
2018-01-10T11:14:47.972Z,7.12
2018-01-10T11:15:52.438Z,9.98
2018-01-10T11:16:57.705Z,7.87
2018-01-10T11:18:02.163Z,8.68
2018-01-10T11:19:06.751Z,8.23
2018-01-10T11:20:11.238Z,9.25
2018-01-10T11:21:15.736Z,8.07
2018-01-10T11:22:21.034Z,7.57
2018-01-10T11:23:25.723Z,14.68
2018-01-10T11:24:30.181Z,9.65
2018-01-10T11:25:35.433Z,9.40
2018-01-10T11:26:39.897Z,8.65
2018-01-10T11:27:43.723Z,8.00
2018-01-10T11:28:48.973Z,7.68
2018-01-10T11:29:53.784Z,8.57
2018-01-10T11:30:58.229Z,6.95
2018-01-10T11:32:02.724Z,7.00
2018-01-10T11:33:07.216Z,6.45
2018-01-10T11:34:11.697Z,14.13
2018-01-10T11:35:16.146Z,6.65
2018-01-10T11:36:20.633Z,5.47
2018-01-10T11:37:25.118Z,6.53
2018-01-10T11:38:29.619Z,9.00
2018-01-10T11:39:34.086Z,6.10
2018-01-10T11:40:38.541Z,6.68
2018-01-10T11:41:42.994Z,6.47
2018-01-10T11:42:48.228Z,6.55
2018-01-10T11:43:53.493Z,5.50
2018-01-10T11:44:57.953Z,6.47
2018-01-10T11:46:03.217Z,4.87
2018-01-10T11:47:07.697Z,5.50
2018-01-10T11:48:12.965Z,6.03
2018-01-10T11:49:17.446Z,5.30
2018-01-10T11:50:22.677Z,6.10
2018-01-10T11:51:27.892Z,6.35
2018-01-10T11:52:33.129Z,5.50
2018-01-10T11:53:38.357Z,5.12
2018-01-10T11:54:43.078Z,5.80
2018-01-10T11:55:48.320Z,5.07
2018-01-10T11:56:53.530Z,6.05
2018-01-10T11:57:58.758Z,5.00
2018-01-10T11:59:04.002Z,5.40
2018-01-10T12:00:09.696Z,5.68
2018-01-10T12:01:14.169Z,6.00
2018-01-10T12:02:18.639Z,5.68
2018-01-10T12:03:23.112Z,5.30
2018-01-10T12:04:27.568Z,5.97
2018-01-10T12:05:32.813Z,5.25
2018-01-10T12:06:37.292Z,6.50
2018-01-10T12:07:41.749Z,6.10
2018-01-10T12:08:46.230Z,5.30
2018-01-10T12:09:51.444Z,6.15
2018-01-10T12:10:55.942Z,5.45
2018-01-10T12:12:00.401Z,6.03
2018-01-10T12:13:05.636Z,6.35
2018-01-10T12:14:10.113Z,6.00
2018-01-10T12:15:14.567Z,6.00
2018-01-10T12:16:19.107Z,6.68
2018-01-10T12:17:23.557Z,7.60
2018-01-10T12:18:28.012Z,6.50
2018-01-10T12:19:32.480Z,6.85
2018-01-10T12:20:36.934Z,6.30
2018-01-10T12:21:41.417Z,7.15
2018-01-10T12:22:46.664Z,5.95
2018-01-10T12:23:51.129Z,6.10
2018-01-10T12:24:55.280Z,5.90
2018-01-10T12:25:59.727Z,6.55
2018-01-10T12:27:04.210Z,5.80
2018-01-10T12:28:08.686Z,6.32
2018-01-10T12:29:13.921Z,5.65
2018-01-10T12:30:19.136Z,6.45
2018-01-10T12:31:23.610Z,5.65
2018-01-10T12:32:28.086Z,5.60
2018-01-10T12:33:32.592Z,6.20
2018-01-10T12:34:38.000Z,6.30
2018-01-10T12:35:42.445Z,5.60
2018-01-10T12:36:46.581Z,6.15
2018-01-10T12:37:51.082Z,6.35
2018-01-10T12:38:55.555Z,5.82
2018-01-10T12:40:00.828Z,5.68
2018-01-10T12:41:05.279Z,5.30
2018-01-10T12:42:09.760Z,5.15
2018-01-10T12:43:14.242Z,5.70
2018-01-10T12:44:18.728Z,5.75
2018-01-10T12:45:23.952Z,4.50
2018-01-10T12:46:29.185Z,5.18
2018-01-10T12:47:34.412Z,5.47
2018-01-10T12:48:39.677Z,4.95
2018-01-10T12:49:44.134Z,5.18
2018-01-10T12:50:48.609Z,6.55
2018-01-10T12:51:53.062Z,5.68
2018-01-10T12:52:57.523Z,6.15
2018-01-10T12:54:02.028Z,5.82
2018-01-10T12:55:06.517Z,6.57
2018-01-10T12:56:11.942Z,5.32
2018-01-10T12:57:17.164Z,6.50
2018-01-10T12:58:21.617Z,6.25
2018-01-10T12:59:26.110Z,5.93
2018-01-10T13:00:30.569Z,5.07
2018-01-10T13:01:35.048Z,4.75
2018-01-10T13:02:39.523Z,5.82
2018-01-10T13:03:43.998Z,5.37
2018-01-10T13:04:48.499Z,5.50
2018-01-10T13:05:52.984Z,5.78
2018-01-10T13:06:57.439Z,5.95
2018-01-10T13:08:01.926Z,5.05
2018-01-10T13:09:06.405Z,5.93
2018-01-10T13:10:11.670Z,5.72
2018-01-10T13:11:16.118Z,4.90
2018-01-10T13:12:22.013Z,4.57
2018-01-10T13:13:26.464Z,4.53
2018-01-10T13:14:31.065Z,4.93
2018-01-10T13:15:35.560Z,4.37
2018-01-10T13:16:40.049Z,5.00
2018-01-10T13:17:44.543Z,4.90
2018-01-10T13:18:49.189Z,3.92
2018-01-10T13:19:53.650Z,4.87
2018-01-10T13:20:58.138Z,5.18
2018-01-10T13:22:02.616Z,5.30
2018-01-10T13:23:07.089Z,4.75
2018-01-10T13:24:11.562Z,5.18
2018-01-10T13:25:16.068Z,5.45
2018-01-10T13:26:20.686Z,5.68
2018-01-10T13:27:25.166Z,5.85
2018-01-10T13:28:30.406Z,6.15
2018-01-10T13:29:34.858Z,3.97
2018-01-10T13:30:39.789Z,5.50
2018-01-10T13:31:44.279Z,5.37
2018-01-10T13:32:48.742Z,5.50
2018-01-10T13:33:53.992Z,5.35
2018-01-10T13:34:58.477Z,5.55
2018-01-10T13:36:03.381Z,5.68
2018-01-10T13:37:09.379Z,6.22
2018-01-10T13:38:13.852Z,5.87
2018-01-10T13:39:19.147Z,6.80
2018-01-10T13:40:23.613Z,5.10
2018-01-10T13:41:28.857Z,5.03
2018-01-10T13:42:33.339Z,5.40
2018-01-10T13:43:37.825Z,5.32
2018-01-10T13:44:42.310Z,5.15
2018-01-10T13:45:46.791Z,5.50
2018-01-10T13:46:52.014Z,5.78
2018-01-10T13:47:57.276Z,5.82
2018-01-10T13:49:01.568Z,5.72
2018-01-10T13:50:06.038Z,5.20
2018-01-10T13:51:10.494Z,4.25
2018-01-10T13:52:14.972Z,4.82
2018-01-10T13:53:19.478Z,5.05
2018-01-10T13:54:23.943Z,4.15
2018-01-10T13:55:28.402Z,4.50
2018-01-10T13:56:32.887Z,4.00
2018-01-10T13:57:37.408Z,3.75
2018-01-10T13:58:41.906Z,3.90
2018-01-10T13:59:46.357Z,4.85